Time;durP1;ratioP1;P1;durP2;ratioP2;P2;SDS_P1;SDS_P2;PMS_P1;PMS_P2;Temp;Humidity;BMP_temperature;BMP_pressure;BME280_temperature;BME280_humidity;BME280_pressure;Samples;Min_cycle;Max_cycle;Signal;HPM_P1;HPM_P2
2023/06/14 00:01:45;;;;;;;4.40;3.33;;;22.10;40.60;;;;;;5031840;28;20612;-75
2023/06/14 00:04:12;;;;;;;5.40;4.03;;;22.10;40.90;;;;;;5032839;28;20946;-75
2023/06/14 00:06:38;;;;;;;4.20;3.57;;;22.10;41.00;;;;;;5031913;28;20961;-75
2023/06/14 00:09:04;;;;;;;4.00;3.60;;;22.00;40.90;;;;;;5022468;28;20613;-74
2023/06/14 00:11:31;;;;;;;6.50;3.20;;;22.00;40.90;;;;;;5012948;28;20624;-75
2023/06/14 00:13:57;;;;;;;5.13;3.97;;;22.00;41.10;;;;;;5011395;28;20613;-74
2023/06/14 00:16:24;;;;;;;4.07;3.67;;;22.00;41.10;;;;;;5005222;28;20649;-75
2023/06/14 00:18:51;;;;;;;3.90;3.50;;;21.90;41.10;;;;;;5012927;28;20580;-74
2023/06/14 00:21:17;;;;;;;4.23;3.33;;;21.90;41.30;;;;;;5012227;28;20609;-74
2023/06/14 00:23:43;;;;;;;4.07;3.67;;;21.90;41.40;;;;;;5011782;28;20596;-74
2023/06/14 00:26:09;;;;;;;3.73;3.33;;;21.80;41.40;;;;;;5027567;28;20601;-75
2023/06/14 00:28:35;;;;;;;6.10;3.90;;;21.80;41.50;;;;;;5010996;28;20577;-74
2023/06/14 00:31:01;;;;;;;6.30;3.33;;;21.70;41.50;;;;;;5010748;28;20619;-74
2023/06/14 00:33:28;;;;;;;4.43;4.03;;;21.70;41.60;;;;;;5029593;28;20192;-74
2023/06/14 00:35:53;;;;;;;4.43;3.63;;;21.60;41.70;;;;;;5026531;28;20639;-74
2023/06/14 00:38:20;;;;;;;5.40;3.90;;;21.60;41.80;;;;;;5029971;28;20223;-75
2023/06/14 00:40:46;;;;;;;5.10;3.77;;;21.50;42.00;;;;;;5014694;28;20580;-75
2023/06/14 00:43:13;;;;;;;10.53;3.40;;;21.50;41.90;;;;;;5030350;28;20573;-74
2023/06/14 00:45:38;;;;;;;4.90;3.93;;;21.50;42.00;;;;;;5031602;28;20580;-74
2023/06/14 00:48:07;;;;;;;5.00;3.63;;;21.40;42.40;;;;;;5030390;28;20186;-75
2023/06/14 00:50:33;;;;;;;4.00;3.60;;;21.40;42.20;;;;;;5032312;28;20902;-75
2023/06/14 00:53:02;;;;;;;4.40;3.47;;;21.40;42.20;;;;;;5021279;28;20644;-74
2023/06/14 00:55:28;;;;;;;7.50;3.73;;;21.40;42.20;;;;;;5019493;28;20980;-74
2023/06/14 00:57:55;;;;;;;4.10;3.43;;;21.40;42.20;;;;;;5014643;28;21156;-74
2023/06/14 01:00:21;;;;;;;4.40;3.47;;;21.30;42.40;;;;;;5031584;28;20618;-74
2023/06/14 01:02:49;;;;;;;4.20;3.80;;;21.30;42.30;;;;;;5030273;28;20972;-74
2023/06/14 01:05:16;;;;;;;3.77;3.37;;;21.30;42.30;;;;;;5002613;28;20618;-74
2023/06/14 01:08:21;;;;;;;4.73;3.47;;;21.30;42.40;;;;;;4994081;28;20585;-74
2023/06/14 01:11:16;;;;;;;4.20;3.07;;;21.20;43.00;;;;;;5014823;28;20604;-74
2023/06/14 01:13:45;;;;;;;3.90;3.50;;;21.20;42.90;;;;;;5006667;28;20995;-74
2023/06/14 01:16:12;;;;;;;5.20;3.50;;;21.10;42.70;;;;;;5022178;28;20645;-74
2023/06/14 01:18:38;;;;;;;4.40;3.77;;;21.10;42.80;;;;;;5010661;28;20624;-74
2023/06/14 01:21:08;;;;;;;4.20;3.63;;;21.10;43.00;;;;;;4991059;28;20658;-77
2023/06/14 01:23:34;;;;;;;4.00;3.40;;;21.00;43.00;;;;;;4975083;28;20587;-77
2023/06/14 01:26:02;;;;;;;4.20;3.57;;;21.00;43.30;;;;;;4988013;28;20991;-77
2023/06/14 01:28:33;;;;;;;5.23;4.07;;;20.90;43.30;;;;;;4994969;28;20259;-77
2023/06/14 01:31:03;;;;;;;4.07;3.60;;;20.90;43.30;;;;;;5005297;28;20602;-77
2023/06/14 01:33:32;;;;;;;3.80;3.40;;;20.80;43.50;;;;;;5024263;28;21225;-78
2023/06/14 01:35:59;;;;;;;6.57;4.13;;;20.80;43.50;;;;;;5006296;28;20731;-77
2023/06/14 01:38:26;;;;;;;4.60;3.23;;;20.70;43.40;;;;;;5045698;28;20588;-77
2023/06/14 01:40:55;;;;;;;4.80;4.00;;;20.70;43.50;;;;;;5013771;28;20596;-77
2023/06/14 01:43:22;;;;;;;4.43;3.53;;;20.60;44.10;;;;;;5030083;28;20591;-77
2023/06/14 01:49:35;;;;;;;5.47;4.50;;;20.50;44.00;;;;;;5033983;28;20591;-77
2023/06/14 01:52:01;;;;;;;4.00;3.30;;;20.50;43.50;;;;;;5029735;28;20619;-77
2023/06/14 01:54:29;;;;;;;5.07;3.60;;;20.40;43.70;;;;;;5013243;28;20259;-77
2023/06/14 01:56:54;;;;;;;4.97;4.00;;;20.40;43.80;;;;;;5012470;28;20184;-77
2023/06/14 01:59:20;;;;;;;4.43;3.90;;;20.30;43.90;;;;;;5013422;28;20706;-77
2023/06/14 02:01:46;;;;;;;4.83;3.90;;;20.30;44.10;;;;;;5004353;28;20660;-77
2023/06/14 02:04:12;;;;;;;3.90;3.60;;;20.20;44.20;;;;;;5029992;28;20184;-77
2023/06/14 02:06:38;;;;;;;4.40;3.77;;;20.20;44.30;;;;;;5012405;28;20181;-77
2023/06/14 02:09:05;;;;;;;4.80;3.80;;;20.10;44.40;;;;;;5029476;28;20558;-78
2023/06/14 02:15:19;;;;;;;5.50;4.53;;;20.10;45.20;;;;;;5028901;28;20632;-77
2023/06/14 02:17:49;;;;;;;4.83;3.60;;;20.10;44.50;;;;;;5000738;28;20612;-77
2023/06/14 02:20:16;;;;;;;4.00;3.40;;;20.10;44.70;;;;;;5012532;28;21037;-77
2023/06/14 02:22:42;;;;;;;3.63;3.07;;;20.10;44.60;;;;;;5010358;28;20640;-77
2023/06/14 02:25:08;;;;;;;4.63;3.80;;;20.10;44.50;;;;;;5030408;28;20612;-77
2023/06/14 02:27:34;;;;;;;4.53;3.27;;;20.10;44.60;;;;;;4990451;28;20194;-77
2023/06/14 02:30:00;;;;;;;8.10;3.40;;;20.10;44.60;;;;;;4973213;28;20586;-77
2023/06/14 02:32:27;;;;;;;3.67;3.30;;;20.10;44.50;;;;;;5005581;28;21006;-77
2023/06/14 02:34:53;;;;;;;5.07;3.40;;;20.10;44.60;;;;;;5006212;28;21045;-77
2023/06/14 02:37:19;;;;;;;3.33;3.03;;;20.10;44.60;;;;;;5009256;28;20589;-77
2023/06/14 02:39:46;;;;;;;4.37;3.97;;;20.10;44.60;;;;;;4973470;28;20685;-77
2023/06/14 02:42:12;;;;;;;4.40;3.30;;;20.00;44.50;;;;;;4972698;28;21280;-77
2023/06/14 02:44:38;;;;;;;3.23;2.93;;;20.00;44.60;;;;;;5018722;28;20235;-77
2023/06/14 02:47:04;;;;;;;3.47;3.10;;;20.00;44.70;;;;;;5012092;28;20184;-77
2023/06/14 02:49:30;;;;;;;3.87;3.17;;;19.90;44.60;;;;;;5029130;28;20585;-77
2023/06/14 02:51:56;;;;;;;7.37;3.60;;;19.90;44.70;;;;;;5027531;28;20620;-77
2023/06/14 02:54:22;;;;;;;4.60;3.17;;;19.90;44.80;;;;;;5028503;28;20758;-76
2023/06/14 02:56:48;;;;;;;4.07;3.67;;;19.90;44.70;;;;;;4992239;28;21329;-76
2023/06/14 02:59:14;;;;;;;3.67;3.27;;;19.90;44.80;;;;;;4992002;28;20177;-76
2023/06/14 03:01:40;;;;;;;3.87;3.30;;;19.90;44.80;;;;;;4996899;28;20190;-76
2023/06/14 03:04:09;;;;;;;3.93;3.10;;;19.90;44.80;;;;;;4992475;28;20588;-76
2023/06/14 03:10:42;;;;;;;5.80;3.03;;;19.90;45.20;;;;;;4952454;28;21195;-77
2023/06/14 03:13:07;;;;;;;3.83;3.00;;;19.90;44.70;;;;;;4952124;28;20702;-77
2023/06/14 03:15:33;;;;;;;3.73;2.93;;;19.90;44.70;;;;;;4952417;28;20737;-77
2023/06/14 03:17:59;;;;;;;4.40;2.80;;;19.90;44.80;;;;;;4952423;28;20179;-77
2023/06/14 03:20:28;;;;;;;3.87;3.07;;;19.90;44.80;;;;;;4953103;28;20597;-76
2023/06/14 03:22:54;;;;;;;5.00;3.10;;;19.90;44.80;;;;;;4953185;28;20599;-76
2023/06/14 03:25:21;;;;;;;3.40;2.90;;;19.90;44.90;;;;;;4937023;28;21205;-77
2023/06/14 03:27:49;;;;;;;4.80;3.20;;;19.90;44.80;;;;;;4951647;28;20298;-77
2023/06/14 03:30:15;;;;;;;4.40;3.50;;;20.00;45.00;;;;;;4936213;28;20623;-78
2023/06/14 03:32:43;;;;;;;3.30;2.90;;;19.90;45.00;;;;;;4935879;28;20693;-76
2023/06/14 03:35:16;;;;;;;5.03;3.33;;;19.90;45.00;;;;;;4951915;28;21139;-76
2023/06/14 03:37:44;;;;;;;3.23;2.93;;;20.00;45.10;;;;;;4936315;28;20282;-74
2023/06/14 03:40:11;;;;;;;3.23;2.70;;;19.90;45.10;;;;;;4970143;28;20672;-76
2023/06/14 03:42:40;;;;;;;3.60;3.30;;;19.90;45.20;;;;;;4968363;28;20981;-76
2023/06/14 03:45:07;;;;;;;4.87;3.30;;;19.90;45.30;;;;;;4942712;28;20749;-74
2023/06/14 03:47:33;;;;;;;4.20;3.63;;;19.90;45.40;;;;;;4977113;28;20175;-75
2023/06/14 03:50:00;;;;;;;4.17;3.33;;;19.80;45.40;;;;;;4958550;28;20602;-76
2023/06/14 03:52:27;;;;;;;3.87;3.30;;;19.90;45.60;;;;;;4937554;28;20844;-76
2023/06/14 03:54:53;;;;;;;8.07;3.53;;;19.80;45.70;;;;;;4969024;28;20639;-75
2023/06/14 03:57:20;;;;;;;5.80;4.17;;;19.80;45.90;;;;;;4958046;28;20597;-76
2023/06/14 03:59:51;;;;;;;3.20;2.83;;;19.80;46.10;;;;;;4955519;28;20924;-77
2023/06/14 04:06:05;;;;;;;4.00;3.60;;;19.80;46.50;;;;;;4988224;28;20579;-75
2023/06/14 04:08:31;;;;;;;3.50;3.20;;;19.80;46.20;;;;;;4972775;28;20601;-74
2023/06/14 04:10:58;;;;;;;4.50;3.27;;;19.80;46.30;;;;;;4982616;28;20593;-75
2023/06/14 04:13:23;;;;;;;4.10;3.13;;;19.90;46.50;;;;;;5013161;28;21170;-75
2023/06/14 04:15:50;;;;;;;4.07;3.10;;;19.90;46.50;;;;;;5017070;28;20201;-75
2023/06/14 04:18:23;;;;;;;5.43;3.30;;;19.90;46.40;;;;;;4996545;28;20170;-74
2023/06/14 04:20:50;;;;;;;3.03;2.73;;;20.00;46.50;;;;;;5012036;28;20588;-75
2023/06/14 04:23:21;;;;;;;3.83;2.40;;;20.00;46.30;;;;;;4979389;28;20620;-75
2023/06/14 04:25:49;;;;;;;4.80;2.47;;;20.10;46.30;;;;;;4994419;28;20596;-75
2023/06/14 04:28:17;;;;;;;3.10;1.93;;;20.20;46.40;;;;;;5010813;28;20648;-75
2023/06/14 04:30:47;;;;;;;3.30;2.60;;;20.30;46.40;;;;;;5015857;28;20580;-75
2023/06/14 04:33:14;;;;;;;6.40;2.70;;;20.50;46.30;;;;;;5029588;28;20618;-75
2023/06/14 04:35:40;;;;;;;3.10;2.33;;;20.60;46.30;;;;;;5007016;28;20628;-75
2023/06/14 04:38:13;;;;;;;3.00;2.23;;;20.80;46.20;;;;;;5013027;28;20623;-75
2023/06/14 04:40:42;;;;;;;3.37;2.17;;;20.90;46.20;;;;;;5030818;28;20588;-75
2023/06/14 04:43:12;;;;;;;2.80;2.60;;;21.10;46.20;;;;;;5013210;28;20620;-76
2023/06/14 04:45:39;;;;;;;3.87;3.27;;;21.20;45.90;;;;;;5014147;28;20588;-76
2023/06/14 04:48:06;;;;;;;2.30;1.80;;;21.40;45.80;;;;;;5014454;28;20580;-76
2023/06/14 04:50:32;;;;;;;6.33;2.03;;;21.40;45.50;;;;;;5032712;28;20645;-75
2023/06/14 04:52:59;;;;;;;3.10;2.10;;;21.50;45.50;;;;;;5018518;28;20616;-75
2023/06/14 04:55:54;;;;;;;3.80;2.30;;;21.70;45.60;;;;;;5011552;28;21277;-75
2023/06/14 04:58:21;;;;;;;4.37;2.63;;;21.70;45.40;;;;;;5031166;28;20679;-75
2023/06/14 05:00:47;;;;;;;7.30;2.40;;;21.90;45.20;;;;;;5030666;28;20679;-76
2023/06/14 05:03:13;;;;;;;3.77;2.10;;;22.00;45.10;;;;;;5018119;28;20170;-76
2023/06/14 05:05:41;;;;;;;4.00;2.40;;;22.00;44.90;;;;;;4994236;28;20727;-75
2023/06/14 05:08:08;;;;;;;3.00;2.43;;;22.10;44.80;;;;;;5011274;28;20581;-75
2023/06/14 05:10:35;;;;;;;4.00;1.90;;;22.10;44.70;;;;;;5010767;28;21176;-75
2023/06/14 05:13:02;;;;;;;3.37;1.90;;;22.20;44.80;;;;;;4994372;28;20615;-75
2023/06/14 05:15:29;;;;;;;2.67;2.10;;;22.50;45.10;;;;;;4994229;28;20641;-76
2023/06/14 05:17:55;;;;;;;4.27;2.57;;;22.70;44.90;;;;;;5010456;28;20593;-75
2023/06/14 05:21:08;;;;;;;5.40;2.27;;;22.90;44.50;;;;;;5013181;28;20691;-76
2023/06/14 05:23:34;;;;;;;4.90;2.20;;;23.00;44.20;;;;;;5028542;28;20184;-76
2023/06/14 05:26:02;;;;;;;3.87;2.60;;;23.20;44.80;;;;;;5019895;28;20596;-76
2023/06/14 05:28:28;;;;;;;3.60;2.37;;;23.30;44.30;;;;;;5030640;28;20188;-75
2023/06/14 05:30:54;;;;;;;5.47;2.50;;;23.30;43.50;;;;;;5031343;28;20580;-72
2023/06/14 05:37:07;;;;;;;3.93;2.00;;;23.20;43.30;;;;;;5022053;28;20213;-74
2023/06/14 05:39:32;;;;;;;4.10;2.57;;;23.30;43.50;;;;;;5029929;28;20646;-74
2023/06/14 05:41:58;;;;;;;4.57;2.40;;;23.30;43.00;;;;;;5013143;28;20205;-74
2023/06/14 05:44:24;;;;;;;4.30;2.10;;;23.40;43.40;;;;;;5029189;28;20186;-74
2023/06/14 05:46:50;;;;;;;4.07;2.50;;;23.60;43.80;;;;;;5030025;28;20181;-74
2023/06/14 05:49:15;;;;;;;3.10;1.93;;;23.70;43.40;;;;;;5029959;28;21396;-74
2023/06/14 05:55:38;;;;;;;2.50;1.90;;;24.10;43.80;;;;;;5029304;28;20202;-76
2023/06/14 06:02:28;;;;;;;2.83;1.83;;;25.60;44.70;;;;;;5033100;28;21131;-79
2023/06/14 06:04:54;;;;;;;5.47;1.93;;;26.80;44.90;;;;;;5035931;28;20595;-79
2023/06/14 06:07:20;;;;;;;4.73;1.93;;;27.90;44.70;;;;;;5037554;28;20600;-80
2023/06/14 06:09:46;;;;;;;4.67;1.80;;;28.60;44.30;;;;;;5053123;28;20545;-79
2023/06/14 06:12:11;;;;;;;1.97;1.40;;;29.30;43.90;;;;;;5034632;28;20335;-79
2023/06/14 06:14:37;;;;;;;6.57;2.20;;;30.00;42.90;;;;;;5033231;28;20201;-78
2023/06/14 06:17:03;;;;;;;2.60;1.80;;;30.60;41.00;;;;;;5018520;28;20184;-79
2023/06/14 06:19:28;;;;;;;3.70;1.70;;;31.30;41.70;;;;;;5029753;28;20265;-76
2023/06/14 06:21:54;;;;;;;2.73;1.70;;;31.70;39.80;;;;;;5008471;28;20673;-77
2023/06/14 06:24:20;;;;;;;4.73;2.17;;;32.30;40.30;;;;;;5010316;28;20187;-75
2023/06/14 06:26:45;;;;;;;3.90;1.80;;;32.70;38.10;;;;;;5026818;28;20175;-75
2023/06/14 06:29:11;;;;;;;4.43;1.80;;;33.10;39.00;;;;;;5030119;28;20200;-75
2023/06/14 06:31:37;;;;;;;2.93;1.30;;;33.40;37.50;;;;;;5029537;28;20222;-75
2023/06/14 06:34:03;;;;;;;3.33;1.77;;;33.60;37.50;;;;;;5012406;28;20183;-75
2023/06/14 06:36:28;;;;;;;6.33;1.30;;;33.80;36.50;;;;;;5022025;28;20568;-75
2023/06/14 06:38:54;;;;;;;3.60;1.50;;;34.00;35.90;;;;;;5012833;28;20904;-75
2023/06/14 06:41:20;;;;;;;2.80;2.00;;;34.30;36.00;;;;;;5028248;28;20212;-76
2023/06/14 06:43:45;;;;;;;2.63;1.47;;;34.50;35.20;;;;;;5030882;28;20178;-75
2023/06/14 06:46:13;;;;;;;4.17;2.23;;;34.90;35.70;;;;;;5012213;28;20649;-75
2023/06/14 06:48:39;;;;;;;2.50;1.60;;;35.20;35.50;;;;;;5030556;28;20584;-75
2023/06/14 06:51:05;;;;;;;3.30;1.60;;;35.60;35.30;;;;;;5027627;28;20596;-75
2023/06/14 06:53:31;;;;;;;2.60;1.50;;;35.80;34.30;;;;;;5029596;28;20577;-75
2023/06/14 06:55:56;;;;;;;2.20;1.53;;;36.00;33.50;;;;;;5028278;28;20642;-75
2023/06/14 06:58:22;;;;;;;3.50;1.20;;;36.40;34.00;;;;;;5027684;28;20700;-76
2023/06/14 07:00:48;;;;;;;5.83;1.63;;;36.20;31.50;;;;;;5011596;28;20182;-76
2023/06/14 07:03:14;;;;;;;2.43;1.23;;;35.90;31.30;;;;;;5029485;28;20193;-76
2023/06/14 07:05:39;;;;;;;2.33;1.40;;;35.60;30.20;;;;;;5012057;28;20174;-75
2023/06/14 07:08:05;;;;;;;3.03;1.20;;;35.30;30.20;;;;;;5011838;28;20181;-76
2023/06/14 07:10:31;;;;;;;2.70;1.20;;;34.90;30.30;;;;;;5028617;28;20224;-75
2023/06/14 07:12:56;;;;;;;3.07;1.50;;;34.60;30.30;;;;;;5028806;28;20197;-75
2023/06/14 07:15:22;;;;;;;2.47;1.30;;;34.60;30.60;;;;;;5011861;28;20624;-75
2023/06/14 07:17:48;;;;;;;2.57;1.10;;;34.50;30.70;;;;;;5017227;28;20190;-75
2023/06/14 07:20:13;;;;;;;5.30;1.33;;;34.50;31.30;;;;;;5009692;28;20219;-75
2023/06/14 07:22:41;;;;;;;4.70;1.63;;;34.70;31.80;;;;;;5007988;28;20682;-75
2023/06/14 07:25:08;;;;;;;2.23;1.27;;;35.00;31.80;;;;;;5009753;28;20170;-75
2023/06/14 07:27:34;;;;;;;2.43;1.30;;;35.30;31.40;;;;;;5008557;28;20589;-76
2023/06/14 07:30:00;;;;;;;4.00;1.40;;;35.60;31.10;;;;;;5009814;28;20584;-77
2023/06/14 07:32:27;;;;;;;3.60;1.30;;;35.70;31.20;;;;;;4992151;28;20636;-78
2023/06/14 07:34:52;;;;;;;2.00;1.10;;;35.80;30.70;;;;;;5007890;28;20643;-77
2023/06/14 07:37:18;;;;;;;2.00;1.30;;;36.00;30.20;;;;;;5015752;28;20174;-77
2023/06/14 07:39:44;;;;;;;3.13;1.13;;;36.00;30.20;;;;;;5030146;28;20166;-78
2023/06/14 07:42:10;;;;;;;2.60;1.50;;;36.20;30.20;;;;;;5027845;28;20205;-79
2023/06/14 07:44:36;;;;;;;1.70;1.10;;;36.30;29.40;;;;;;5045454;28;20603;-77
2023/06/14 07:47:02;;;;;;;3.53;1.37;;;36.20;29.30;;;;;;5047316;28;21127;-77
2023/06/14 07:49:28;;;;;;;2.63;1.03;;;36.30;29.80;;;;;;5049070;28;20256;-78
2023/06/14 07:51:54;;;;;;;2.47;1.30;;;36.50;29.80;;;;;;5032542;28;20216;-78
2023/06/14 07:54:24;;;;;;;3.30;1.20;;;36.60;29.70;;;;;;5037973;28;20208;-78
2023/06/14 07:56:51;;;;;;;4.43;1.10;;;36.90;29.70;;;;;;5034064;28;20243;-78
2023/06/14 07:59:17;;;;;;;3.20;1.27;;;37.10;29.20;;;;;;5015170;28;20596;-78
2023/06/14 08:01:46;;;;;;;2.00;0.90;;;37.10;28.00;;;;;;5033597;28;20284;-78
2023/06/14 08:04:15;;;;;;;2.00;1.13;;;37.10;28.40;;;;;;5014802;28;20619;-78
2023/06/14 08:06:44;;;;;;;2.97;1.10;;;37.10;28.90;;;;;;5031996;28;21163;-77
2023/06/14 08:09:11;;;;;;;2.57;1.00;;;37.00;28.00;;;;;;5031644;28;20683;-77
2023/06/14 08:11:37;;;;;;;2.90;0.90;;;37.00;28.30;;;;;;5032404;28;20608;-77
2023/06/14 08:14:02;;;;;;;2.00;0.90;;;36.80;28.10;;;;;;5017416;28;20612;-77
2023/06/14 08:16:28;;;;;;;2.00;0.70;;;37.00;28.10;;;;;;5028471;28;20710;-77
2023/06/14 08:18:54;;;;;;;1.70;0.70;;;37.30;28.60;;;;;;5013480;28;20186;-77
2023/06/14 08:21:20;;;;;;;2.20;0.83;;;37.60;28.40;;;;;;5010988;28;20198;-77
2023/06/14 08:23:47;;;;;;;1.63;0.80;;;37.70;26.80;;;;;;5012278;28;21128;-76
2023/06/14 08:26:13;;;;;;;2.23;1.00;;;37.90;27.50;;;;;;5011513;28;20237;-76
2023/06/14 08:28:39;;;;;;;2.10;0.80;;;37.80;26.00;;;;;;5012063;28;20589;-76
2023/06/14 08:31:04;;;;;;;2.60;0.83;;;37.20;25.50;;;;;;5014771;28;20573;-76
2023/06/14 08:33:32;;;;;;;2.07;0.80;;;37.10;26.10;;;;;;5014093;28;20276;-77
2023/06/14 08:35:58;;;;;;;3.23;0.80;;;37.20;26.00;;;;;;5023685;28;20682;-77
2023/06/14 08:38:24;;;;;;;2.70;1.10;;;37.20;25.70;;;;;;5014408;28;20675;-76
2023/06/14 08:40:52;;;;;;;3.70;0.80;;;37.00;25.50;;;;;;5012456;28;20174;-76
2023/06/14 08:43:19;;;;;;;3.30;0.73;;;36.60;25.00;;;;;;5011887;28;20220;-75
2023/06/14 08:45:48;;;;;;;1.60;0.73;;;36.30;24.60;;;;;;5011824;28;20675;-76
2023/06/14 08:48:17;;;;;;;2.47;0.70;;;36.20;25.60;;;;;;5012420;28;20588;-75
2023/06/14 08:50:45;;;;;;;4.40;0.83;;;36.30;26.00;;;;;;5010899;28;20577;-76
2023/06/14 08:53:19;;;;;;;1.70;0.70;;;36.50;26.30;;;;;;5010234;28;20770;-76
2023/06/14 08:55:45;;;;;;;1.70;0.83;;;36.80;25.80;;;;;;5009797;28;20681;-75
2023/06/14 08:58:14;;;;;;;2.43;1.53;;;37.00;26.10;;;;;;5005764;28;21082;-76
2023/06/14 09:00:42;;;;;;;1.73;0.70;;;37.30;26.20;;;;;;5007140;28;20179;-76
2023/06/14 09:03:13;;;;;;;3.70;0.70;;;37.60;26.10;;;;;;4981005;28;20641;-78
2023/06/14 09:05:38;;;;;;;1.80;0.90;;;37.90;26.00;;;;;;5011790;28;21148;-80
2023/06/14 09:08:05;;;;;;;1.67;0.70;;;38.10;25.70;;;;;;5032710;28;20616;-78
2023/06/14 09:10:36;;;;;;;2.37;0.80;;;38.30;25.80;;;;;;5013399;28;20197;-79
2023/06/14 09:13:04;;;;;;;2.07;1.00;;;38.40;25.10;;;;;;5010408;28;20632;-79
2023/06/14 09:15:33;;;;;;;1.50;0.80;;;38.10;24.20;;;;;;5011230;28;20877;-79
2023/06/14 09:18:02;;;;;;;1.50;0.80;;;38.10;25.00;;;;;;4994207;28;20605;-79
2023/06/14 09:20:30;;;;;;;1.60;0.87;;;38.10;25.10;;;;;;4994812;28;20585;-78
2023/06/14 09:22:56;;;;;;;2.63;0.80;;;38.20;25.20;;;;;;5023147;28;20616;-79
2023/06/14 09:25:27;;;;;;;1.80;0.90;;;38.40;25.30;;;;;;5015881;28;20786;-79
2023/06/14 09:27:53;;;;;;;2.13;0.90;;;38.40;24.20;;;;;;5084846;22;21313;-76
2023/06/14 09:30:20;;;;;;;1.73;0.80;;;38.10;24.00;;;;;;5047438;28;20611;-76
2023/06/14 09:32:46;;;;;;;3.03;0.80;;;38.10;24.70;;;;;;5051349;28;20617;-76
2023/06/14 09:35:12;;;;;;;1.50;0.80;;;38.20;24.90;;;;;;5036895;28;20727;-75
2023/06/14 09:37:38;;;;;;;2.33;0.90;;;38.20;24.70;;;;;;5069920;28;20191;-75
2023/06/14 09:40:05;;;;;;;3.93;0.70;;;38.10;24.40;;;;;;5058373;28;20174;-75
2023/06/14 09:42:31;;;;;;;1.80;0.80;;;37.80;24.20;;;;;;5090885;28;20581;-75
2023/06/14 09:44:57;;;;;;;3.97;1.00;;;37.70;24.50;;;;;;5073336;28;20624;-76
2023/06/14 09:47:23;;;;;;;2.63;0.80;;;37.70;24.80;;;;;;5057731;28;20653;-75
2023/06/14 09:49:50;;;;;;;1.57;0.83;;;37.80;25.10;;;;;;5074552;28;20175;-76
2023/06/14 09:52:18;;;;;;;3.23;0.80;;;37.90;24.40;;;;;;5074196;28;20589;-75
2023/06/14 09:54:48;;;;;;;1.90;0.80;;;37.90;25.00;;;;;;5075386;28;20682;-76
2023/06/14 09:57:20;;;;;;;1.50;0.80;;;38.00;25.20;;;;;;5095164;28;20601;-76
2023/06/14 09:59:50;;;;;;;3.30;0.90;;;38.00;24.80;;;;;;5094579;28;20571;-76
2023/06/14 10:02:26;;;;;;;3.73;1.00;;;38.10;24.90;;;;;;5094821;28;20582;-75
2023/06/14 10:05:08;;;;;;;1.50;0.80;;;38.20;25.00;;;;;;5092819;28;20592;-76
2023/06/14 10:07:53;;;;;;;2.57;0.70;;;38.20;24.40;;;;;;5070501;28;21030;-76
2023/06/14 10:10:19;;;;;;;1.90;0.90;;;38.10;24.20;;;;;;5078115;28;21277;-76
2023/06/14 10:12:46;;;;;;;2.00;0.80;;;38.00;24.50;;;;;;5057028;28;20605;-76
2023/06/14 10:15:20;;;;;;;5.80;0.80;;;38.00;24.80;;;;;;5082425;28;20631;-76
2023/06/14 10:17:56;;;;;;;1.90;0.90;;;37.90;25.00;;;;;;5070145;28;21353;-76
2023/06/14 10:20:32;;;;;;;3.70;1.20;;;38.00;25.10;;;;;;5052906;28;20969;-76
2023/06/14 10:23:13;;;;;;;2.03;1.00;;;38.10;25.30;;;;;;5051772;28;20654;-75
2023/06/14 10:25:39;;;;;;;1.40;0.73;;;38.20;25.10;;;;;;5070225;28;21109;-75
2023/06/14 10:28:16;;;;;;;2.67;1.00;;;38.20;25.10;;;;;;5070558;28;20625;-75
2023/06/14 10:31:03;;;;;;;1.53;0.80;;;38.00;24.80;;;;;;5069905;28;20267;-75
2023/06/14 10:33:30;;;;;;;2.03;0.90;;;38.00;25.10;;;;;;5071673;28;20678;-75
2023/06/14 10:36:26;;;;;;;4.80;1.60;;;38.20;24.90;;;;;;5034942;28;21044;-76
2023/06/14 10:39:17;;;;;;;1.77;1.10;;;37.70;23.50;;;;;;5072544;28;20595;-76
2023/06/14 10:41:54;;;;;;;1.77;1.00;;;37.70;24.80;;;;;;5079455;28;20634;-76
2023/06/14 10:44:19;;;;;;;1.60;0.80;;;37.70;24.70;;;;;;5090357;28;20572;-76
2023/06/14 10:46:49;;;;;;;2.27;0.80;;;37.50;24.50;;;;;;5090349;28;20598;-76
2023/06/14 10:49:18;;;;;;;2.53;0.80;;;37.20;24.60;;;;;;5090377;28;20175;-75
2023/06/14 10:51:49;;;;;;;1.93;1.00;;;36.90;24.30;;;;;;5080896;28;20979;-76
2023/06/14 10:54:20;;;;;;;2.77;1.10;;;36.30;24.40;;;;;;5052309;28;20571;-77
2023/06/14 10:56:51;;;;;;;1.50;0.80;;;35.80;24.90;;;;;;5051964;28;20630;-76
2023/06/14 10:59:18;;;;;;;1.63;0.97;;;35.60;25.50;;;;;;5069740;28;20933;-76
2023/06/14 11:02:10;;;;;;;2.33;0.87;;;35.60;25.40;;;;;;5051298;28;20606;-76
2023/06/14 11:04:53;;;;;;;1.73;0.83;;;35.50;25.70;;;;;;5034187;28;20624;-76
2023/06/14 11:07:33;;;;;;;2.73;0.93;;;35.60;25.30;;;;;;5070311;28;20614;-75
2023/06/14 11:10:12;;;;;;;1.77;1.07;;;35.50;25.30;;;;;;5071173;28;20574;-76
2023/06/14 11:12:42;;;;;;;5.13;0.87;;;35.40;25.30;;;;;;5069199;28;20914;-76
2023/06/14 11:15:08;;;;;;;2.20;0.90;;;35.20;25.10;;;;;;5069285;28;20746;-76
2023/06/14 11:17:34;;;;;;;2.47;0.90;;;35.10;25.10;;;;;;5051958;28;20617;-76
2023/06/14 11:20:15;;;;;;;2.17;1.13;;;35.00;25.60;;;;;;5069831;28;20566;-76
2023/06/14 11:22:42;;;;;;;2.20;0.90;;;35.10;25.50;;;;;;5069417;28;20168;-75
2023/06/14 11:25:11;;;;;;;1.90;0.90;;;35.20;26.10;;;;;;5051423;28;20652;-76
2023/06/14 11:27:37;;;;;;;2.63;0.87;;;35.30;25.70;;;;;;5069487;28;20641;-76
2023/06/14 11:30:04;;;;;;;1.53;0.80;;;35.20;25.70;;;;;;5069848;28;20586;-77
2023/06/14 11:32:31;;;;;;;4.80;0.90;;;35.20;25.90;;;;;;5013919;28;20183;-76
2023/06/14 11:34:58;;;;;;;1.60;0.83;;;34.90;25.90;;;;;;5033305;28;20646;-76
2023/06/14 11:37:28;;;;;;;1.57;0.90;;;34.80;26.00;;;;;;5065186;28;20636;-76
2023/06/14 11:39:57;;;;;;;3.20;0.90;;;34.70;26.90;;;;;;5090093;28;20573;-76
2023/06/14 11:42:24;;;;;;;1.77;0.93;;;34.70;26.80;;;;;;5063460;28;20610;-76
2023/06/14 11:44:50;;;;;;;1.47;0.80;;;34.70;26.70;;;;;;5058469;28;20681;-77
2023/06/14 11:47:16;;;;;;;2.53;1.10;;;34.60;26.80;;;;;;5078009;28;20686;-76
2023/06/14 11:49:41;;;;;;;3.03;1.03;;;34.40;26.90;;;;;;5075442;28;20707;-76
2023/06/14 11:52:07;;;;;;;2.00;0.90;;;34.20;27.00;;;;;;5063318;28;20189;-76
2023/06/14 11:54:33;;;;;;;1.60;0.70;;;34.10;27.10;;;;;;5061238;28;20214;-77
2023/06/14 11:56:59;;;;;;;3.00;1.00;;;34.20;27.20;;;;;;5040165;28;20985;-76
2023/06/14 11:59:25;;;;;;;1.67;0.80;;;34.30;27.50;;;;;;5058606;28;20198;-78
2023/06/14 12:01:56;;;;;;;1.90;1.00;;;34.40;27.70;;;;;;5073372;28;20578;-76
2023/06/14 12:04:26;;;;;;;1.77;0.80;;;34.40;27.30;;;;;;5078493;28;20267;-76
2023/06/14 12:06:55;;;;;;;1.70;0.80;;;34.20;27.20;;;;;;5059496;28;20600;-77
2023/06/14 12:09:26;;;;;;;2.00;0.90;;;34.10;27.40;;;;;;5083196;28;20551;-76
2023/06/14 12:12:00;;;;;;;3.40;1.30;;;34.00;27.50;;;;;;5061565;28;20617;-75
2023/06/14 12:14:31;;;;;;;1.70;1.00;;;33.80;27.40;;;;;;5088549;28;20548;-77
2023/06/14 12:17:07;;;;;;;5.10;1.07;;;33.60;27.60;;;;;;5088614;28;20637;-77
2023/06/14 12:19:33;;;;;;;3.40;1.00;;;33.40;27.60;;;;;;5086655;28;20597;-78
2023/06/14 12:22:01;;;;;;;2.43;1.00;;;33.20;27.50;;;;;;5064968;28;20617;-76
2023/06/14 12:24:31;;;;;;;2.43;0.90;;;32.90;27.50;;;;;;5070202;28;20582;-76
2023/06/14 12:27:02;;;;;;;1.50;0.77;;;32.70;27.80;;;;;;5085747;28;20711;-76
2023/06/14 12:29:29;;;;;;;2.43;0.83;;;32.70;27.80;;;;;;5069780;28;20610;-76
2023/06/14 12:31:56;;;;;;;1.70;0.73;;;32.50;27.80;;;;;;5056777;28;20627;-77
2023/06/14 12:34:27;;;;;;;2.37;0.70;;;32.60;28.00;;;;;;5059527;28;20586;-77
2023/06/14 12:36:57;;;;;;;1.77;0.90;;;32.70;28.10;;;;;;5065273;28;20635;-78
2023/06/14 12:39:23;;;;;;;1.60;0.80;;;32.60;27.90;;;;;;5059236;28;20588;-74
2023/06/14 12:41:48;;;;;;;1.73;0.70;;;32.50;27.60;;;;;;5056239;28;20707;-76
2023/06/14 12:44:15;;;;;;;1.40;0.70;;;32.20;27.60;;;;;;5076527;28;20596;-77
2023/06/14 12:46:42;;;;;;;2.57;0.80;;;32.20;27.70;;;;;;5054406;28;20199;-75
2023/06/14 12:49:10;;;;;;;1.70;0.80;;;31.90;27.80;;;;;;5057305;28;20750;-78
2023/06/14 12:51:36;;;;;;;2.30;0.80;;;31.70;27.70;;;;;;5068326;28;20673;-77
2023/06/14 12:54:02;;;;;;;2.70;0.80;;;31.40;27.90;;;;;;5047422;28;21145;-77
2023/06/14 12:56:28;;;;;;;1.50;0.70;;;31.30;28.20;;;;;;5084636;28;20677;-77
2023/06/14 12:58:54;;;;;;;1.60;0.90;;;31.30;28.40;;;;;;5047906;28;20226;-77
2023/06/14 13:01:20;;;;;;;2.63;0.80;;;31.20;28.40;;;;;;5057444;28;20255;-76
2023/06/14 13:03:47;;;;;;;1.77;0.70;;;31.10;28.70;;;;;;5061172;28;20648;-77
2023/06/14 13:06:12;;;;;;;1.40;0.67;;;30.90;28.60;;;;;;5051865;28;20618;-77
2023/06/14 13:08:38;;;;;;;7.20;1.53;;;30.70;28.50;;;;;;5059304;28;20594;-77
2023/06/14 13:11:05;;;;;;;2.10;0.80;;;30.50;28.80;;;;;;5026484;28;20259;-76
2023/06/14 13:13:31;;;;;;;2.07;0.63;;;30.30;29.20;;;;;;5042870;28;20188;-76
2023/06/14 13:15:56;;;;;;;1.97;0.80;;;30.10;29.20;;;;;;5050690;28;20669;-75
2023/06/14 13:18:22;;;;;;;2.30;0.70;;;30.00;29.40;;;;;;5050780;28;20964;-78
2023/06/14 13:20:48;;;;;;;1.60;0.80;;;29.80;29.40;;;;;;5027600;28;20288;-77